Time;durP1;ratioP1;P1;durP2;ratioP2;P2;SDS_P1;SDS_P2;PMS_P1;PMS_P2;Temp;Humidity;BMP_temperature;BMP_pressure;BME280_temperature;BME280_humidity;BME280_pressure;Samples;Min_cycle;Max_cycle;Signal;HPM_P1;HPM_P2
2021/07/12 00:01:10;;;;;;;8.68;1.98;;;;;;;;;;5068910;28;20106;-60
2021/07/12 00:03:38;;;;;;;4.65;2.55;;;;;;;;;;5061050;28;20412;-59
2021/07/12 00:06:08;;;;;;;4.65;1.92;;;;;;;;;;5057113;28;20063;-56
2021/07/12 00:08:37;;;;;;;3.55;1.77;;;;;;;;;;5063027;28;20072;-58
2021/07/12 00:11:05;;;;;;;4.20;2.10;;;;;;;;;;5052109;28;20053;-59
2021/07/12 00:13:35;;;;;;;3.63;2.22;;;;;;;;;;5042707;28;20505;-58
2021/07/12 00:16:05;;;;;;;3.42;2.20;;;;;;;;;;5032628;28;20123;-59
2021/07/12 00:18:34;;;;;;;3.53;2.25;;;;;;;;;;5057630;28;20402;-59
2021/07/12 00:21:02;;;;;;;5.90;2.42;;;;;;;;;;5046880;28;20073;-58
2021/07/12 00:23:31;;;;;;;6.45;2.10;;;;;;;;;;5059819;28;20496;-58
2021/07/12 00:26:03;;;;;;;4.57;2.00;;;;;;;;;;5053545;28;20559;-58
2021/07/12 00:28:32;;;;;;;4.38;1.85;;;;;;;;;;5066169;28;20049;-58
2021/07/12 00:31:02;;;;;;;4.47;2.13;;;;;;;;;;5061293;28;20154;-59
2021/07/12 00:33:31;;;;;;;3.75;1.98;;;;;;;;;;5052118;28;20076;-58
2021/07/12 00:36:00;;;;;;;5.57;2.05;;;;;;;;;;5047998;28;20080;-59
2021/07/12 00:38:28;;;;;;;5.15;2.10;;;;;;;;;;5061897;28;20139;-59
2021/07/12 00:40:56;;;;;;;5.25;2.00;;;;;;;;;;5061962;28;20140;-58
2021/07/12 00:43:25;;;;;;;4.13;2.47;;;;;;;;;;5045763;28;20453;-59
2021/07/12 00:45:54;;;;;;;3.92;2.13;;;;;;;;;;5040356;28;20049;-58
2021/07/12 00:48:24;;;;;;;3.28;2.00;;;;;;;;;;5056858;28;20047;-58
2021/07/12 00:50:53;;;;;;;3.42;2.33;;;;;;;;;;5060271;28;20249;-58
2021/07/12 00:53:22;;;;;;;3.47;2.10;;;;;;;;;;5052379;28;20084;-59
2021/07/12 00:55:51;;;;;;;3.30;2.10;;;;;;;;;;5057394;28;20085;-58
2021/07/12 00:58:20;;;;;;;3.83;2.00;;;;;;;;;;5060140;28;20143;-57
2021/07/12 01:00:50;;;;;;;4.05;2.30;;;;;;;;;;5063084;28;20151;-58
2021/07/12 01:03:19;;;;;;;4.38;2.38;;;;;;;;;;5063088;23;20065;-69
2021/07/12 01:05:49;;;;;;;5.00;2.22;;;;;;;;;;5074939;28;20041;-68
2021/07/12 01:08:17;;;;;;;7.30;2.35;;;;;;;;;;5076748;28;20131;-68
2021/07/12 01:10:48;;;;;;;4.10;2.40;;;;;;;;;;5076754;28;20076;-68
2021/07/12 01:13:28;;;;;;;2.90;1.95;;;;;;;;;;5077264;28;20044;-68
2021/07/12 01:16:01;;;;;;;4.25;2.17;;;;;;;;;;5076786;28;20049;-68
2021/07/12 01:18:32;;;;;;;4.32;2.10;;;;;;;;;;5076204;28;20052;-69
2021/07/12 01:21:40;;;;;;;3.80;2.40;;;;;;;;;;5077220;28;20140;-70
2021/07/12 01:24:22;;;;;;;2.70;2.30;;;;;;;;;;5076553;28;20568;-68
2021/07/12 01:27:04;;;;;;;6.82;2.05;;;;;;;;;;5075791;28;20047;-68
2021/07/12 01:29:43;;;;;;;2.58;1.85;;;;;;;;;;5076948;28;20087;-68
2021/07/12 01:32:20;;;;;;;4.00;2.42;;;;;;;;;;5075701;28;20045;-68
2021/07/12 01:34:56;;;;;;;5.20;2.05;;;;;;;;;;5075917;28;20052;-68
2021/07/12 01:37:30;;;;;;;3.15;1.98;;;;;;;;;;5075682;28;20052;-69
2021/07/12 01:40:03;;;;;;;3.58;2.10;;;;;;;;;;5076389;28;20095;-68
2021/07/12 01:42:34;;;;;;;2.50;1.98;;;;;;;;;;5075921;28;20452;-70
2021/07/12 01:45:04;;;;;;;5.25;2.58;;;;;;;;;;5075639;28;20500;-68
2021/07/12 01:47:36;;;;;;;5.47;2.17;;;;;;;;;;5075507;28;20095;-68
2021/07/12 01:50:09;;;;;;;3.60;1.80;;;;;;;;;;5076010;28;20131;-68
2021/07/12 01:52:40;;;;;;;4.85;1.88;;;;;;;;;;5075091;28;20511;-68
2021/07/12 01:55:12;;;;;;;6.55;2.03;;;;;;;;;;5076072;28;20052;-69
2021/07/12 01:57:44;;;;;;;2.42;1.80;;;;;;;;;;5075417;28;20136;-68
2021/07/12 02:00:13;;;;;;;7.47;2.35;;;;;;;;;;5076066;28;20083;-68
2021/07/12 02:02:43;;;;;;;3.20;2.13;;;;;;;;;;5074463;28;20075;-68
2021/07/12 02:05:14;;;;;;;4.85;2.25;;;;;;;;;;5067801;28;20113;-68
2021/07/12 02:07:44;;;;;;;2.50;2.03;;;;;;;;;;5071829;28;20425;-69
2021/07/12 02:10:13;;;;;;;5.43;1.77;;;;;;;;;;5070773;28;20756;-69
2021/07/12 02:12:43;;;;;;;5.68;1.92;;;;;;;;;;5068714;28;20515;-69
2021/07/12 02:15:12;;;;;;;2.35;2.08;;;;;;;;;;5070592;28;20040;-72
2021/07/12 02:17:40;;;;;;;5.70;2.00;;;;;;;;;;5071728;28;20040;-69
2021/07/12 02:20:10;;;;;;;3.50;1.88;;;;;;;;;;5071326;28;20072;-68
2021/07/12 02:22:41;;;;;;;6.05;2.35;;;;;;;;;;5070088;28;20123;-68
2021/07/12 02:25:12;;;;;;;6.03;2.10;;;;;;;;;;5070771;28;20152;-68
2021/07/12 02:27:42;;;;;;;6.90;2.40;;;;;;;;;;5071539;28;20498;-68
2021/07/12 02:30:12;;;;;;;9.52;2.53;;;;;;;;;;5071411;28;20088;-69
2021/07/12 02:32:41;;;;;;;4.38;2.17;;;;;;;;;;5070913;28;20072;-68
2021/07/12 02:35:11;;;;;;;6.05;2.13;;;;;;;;;;5068277;28;20124;-68
2021/07/12 02:37:42;;;;;;;2.92;2.03;;;;;;;;;;5069861;28;20110;-68
2021/07/12 02:40:12;;;;;;;4.75;2.17;;;;;;;;;;5070036;28;20116;-68
2021/07/12 02:42:41;;;;;;;7.07;2.67;;;;;;;;;;5070958;28;20131;-68
2021/07/12 02:45:10;;;;;;;5.50;2.40;;;;;;;;;;5070478;28;20071;-68
2021/07/12 02:47:40;;;;;;;6.57;2.67;;;;;;;;;;5071336;28;20052;-68
2021/07/12 02:50:09;;;;;;;5.15;2.58;;;;;;;;;;5069565;28;20101;-71
2021/07/12 02:52:41;;;;;;;5.15;2.38;;;;;;;;;;5067925;28;20083;-68
2021/07/12 02:55:10;;;;;;;5.68;2.20;;;;;;;;;;5069232;28;20049;-68
2021/07/12 02:57:38;;;;;;;6.95;2.95;;;;;;;;;;5071015;28;20052;-68
2021/07/12 03:00:09;;;;;;;3.72;2.30;;;;;;;;;;5070460;28;20048;-68
2021/07/12 03:02:37;;;;;;;5.07;2.42;;;;;;;;;;5070334;28;20087;-68
2021/07/12 03:05:06;;;;;;;4.40;2.58;;;;;;;;;;5070617;28;20560;-67
2021/07/12 03:07:35;;;;;;;6.18;2.58;;;;;;;;;;5070547;28;20048;-68
2021/07/12 03:10:07;;;;;;;6.35;2.90;;;;;;;;;;5070216;28;20698;-68
2021/07/12 03:12:37;;;;;;;3.55;2.10;;;;;;;;;;5070305;28;20139;-68
2021/07/12 03:15:06;;;;;;;5.00;2.65;;;;;;;;;;5070371;28;20083;-69
2021/07/12 03:17:36;;;;;;;5.97;2.67;;;;;;;;;;5051426;28;20135;-70
2021/07/12 03:20:07;;;;;;;3.30;2.30;;;;;;;;;;5062647;28;20419;-68
2021/07/12 03:22:36;;;;;;;4.20;2.20;;;;;;;;;;5070011;28;20097;-69
2021/07/12 03:25:07;;;;;;;3.50;2.45;;;;;;;;;;5065940;28;20053;-69
2021/07/12 03:27:36;;;;;;;2.78;2.30;;;;;;;;;;5068253;28;20112;-69
2021/07/12 03:30:05;;;;;;;4.65;2.40;;;;;;;;;;5068184;28;20568;-69
2021/07/12 03:32:52;;;;;;;3.70;2.29;;;;;;;;;;2968754;28;10004062;-69
2021/07/12 03:35:21;;;;;;;6.75;2.42;;;;;;;;;;3312272;28;10001157;-69
2021/07/12 03:37:51;;;;;;;8.30;2.60;;;;;;;;;;5070897;28;20095;-68
2021/07/12 03:40:21;;;;;;;4.40;2.35;;;;;;;;;;5069934;28;20571;-68
2021/07/12 03:42:49;;;;;;;7.32;2.83;;;;;;;;;;5069199;28;20378;-68
2021/07/12 03:45:18;;;;;;;4.22;2.65;;;;;;;;;;5068452;28;20488;-69
2021/07/12 03:47:47;;;;;;;4.10;2.60;;;;;;;;;;5068917;28;20083;-69
2021/07/12 03:50:17;;;;;;;6.50;2.08;;;;;;;;;;5067557;28;20520;-69
2021/07/12 03:52:46;;;;;;;3.42;2.42;;;;;;;;;;5063442;28;20125;-68
2021/07/12 03:55:15;;;;;;;3.72;2.40;;;;;;;;;;5068962;28;20053;-69
2021/07/12 03:57:45;;;;;;;5.60;2.67;;;;;;;;;;5073240;28;20068;-70
2021/07/12 04:00:14;;;;;;;6.40;2.42;;;;;;;;;;5069709;28;20503;-69
2021/07/12 04:02:43;;;;;;;4.18;2.38;;;;;;;;;;5068725;28;20495;-69
2021/07/12 04:05:12;;;;;;;11.80;2.70;;;;;;;;;;5066850;28;20135;-69
2021/07/12 04:07:41;;;;;;;4.95;2.83;;;;;;;;;;5068166;28;20063;-69
2021/07/12 04:10:11;;;;;;;6.13;2.60;;;;;;;;;;5069605;28;20040;-69
2021/07/12 04:12:39;;;;;;;3.92;2.60;;;;;;;;;;5068448;28;20822;-70
2021/07/12 04:15:09;;;;;;;4.50;3.05;;;;;;;;;;5058440;28;20056;-70
2021/07/12 04:17:38;;;;;;;5.88;2.83;;;;;;;;;;5058975;28;20559;-69
2021/07/12 04:20:07;;;;;;;6.40;2.70;;;;;;;;;;5066839;28;20315;-70
2021/07/12 04:22:35;;;;;;;3.05;2.35;;;;;;;;;;5066897;28;20546;-69
2021/07/12 04:25:04;;;;;;;4.93;2.90;;;;;;;;;;5066597;28;20044;-69
2021/07/12 04:27:33;;;;;;;2.97;2.58;;;;;;;;;;5067118;28;20052;-69
2021/07/12 04:30:01;;;;;;;5.18;3.10;;;;;;;;;;5067476;28;20139;-69
2021/07/12 04:32:31;;;;;;;5.43;2.90;;;;;;;;;;5067579;28;20057;-70
2021/07/12 04:35:00;;;;;;;3.53;2.88;;;;;;;;;;5057281;28;20077;-68
2021/07/12 04:37:28;;;;;;;5.53;2.90;;;;;;;;;;5054232;28;20049;-70
2021/07/12 04:39:57;;;;;;;24.95;3.47;;;;;;;;;;5065349;28;20112;-69
2021/07/12 04:42:25;;;;;;;5.70;3.00;;;;;;;;;;5066205;28;20060;-71
2021/07/12 04:44:53;;;;;;;4.13;3.08;;;;;;;;;;5065020;28;20099;-69
2021/07/12 04:47:22;;;;;;;3.38;2.67;;;;;;;;;;5051204;28;20084;-71
2021/07/12 04:49:52;;;;;;;3.47;2.78;;;;;;;;;;5065990;28;20048;-69
2021/07/12 04:52:20;;;;;;;3.38;2.80;;;;;;;;;;5056832;28;20135;-69
2021/07/12 04:54:50;;;;;;;3.30;2.63;;;;;;;;;;5066147;28;20242;-68
2021/07/12 04:57:18;;;;;;;3.53;2.60;;;;;;;;;;5066783;28;20051;-69
2021/07/12 04:59:47;;;;;;;3.70;2.95;;;;;;;;;;5068486;28;20501;-68
2021/07/12 05:02:16;;;;;;;4.30;3.25;;;;;;;;;;5067874;28;20053;-69
2021/07/12 05:04:45;;;;;;;6.55;3.60;;;;;;;;;;5069011;28;20041;-69
2021/07/12 05:07:15;;;;;;;8.27;3.45;;;;;;;;;;5066916;28;20046;-68
2021/07/12 05:09:43;;;;;;;4.20;3.33;;;;;;;;;;5067077;28;20561;-68
2021/07/12 05:12:14;;;;;;;4.90;3.72;;;;;;;;;;5067989;28;20488;-69
2021/07/12 05:14:43;;;;;;;5.80;4.32;;;;;;;;;;5067657;28;20530;-69
2021/07/12 05:17:12;;;;;;;10.50;5.50;;;;;;;;;;5055741;28;20057;-70
2021/07/12 05:19:41;;;;;;;8.85;4.50;;;;;;;;;;5064822;28;20048;-70
2021/07/12 05:22:09;;;;;;;7.82;4.68;;;;;;;;;;5064474;28;20309;-69
2021/07/12 05:24:39;;;;;;;6.00;4.22;;;;;;;;;;5066924;28;20539;-69
2021/07/12 05:27:09;;;;;;;5.97;4.32;;;;;;;;;;5065212;28;20107;-69
2021/07/12 05:29:38;;;;;;;6.65;4.53;;;;;;;;;;5065677;28;20044;-69
2021/07/12 05:32:06;;;;;;;8.15;4.90;;;;;;;;;;5066474;28;20052;-69
2021/07/12 05:34:35;;;;;;;7.35;4.47;;;;;;;;;;5066047;28;20045;-69
2021/07/12 05:37:03;;;;;;;6.90;4.30;;;;;;;;;;5063876;28;20511;-69
2021/07/12 05:39:32;;;;;;;7.03;3.95;;;;;;;;;;5061840;28;20098;-69
2021/07/12 05:42:01;;;;;;;5.88;3.85;;;;;;;;;;5066541;28;20044;-69
2021/07/12 05:44:31;;;;;;;5.28;4.10;;;;;;;;;;5065517;28;20036;-69
2021/07/12 05:47:00;;;;;;;5.78;4.28;;;;;;;;;;5065165;28;20137;-69
2021/07/12 05:49:28;;;;;;;5.43;3.17;;;;;;;;;;5065090;28;20432;-69
2021/07/12 05:51:57;;;;;;;5.72;4.18;;;;;;;;;;5065971;28;20059;-69
2021/07/12 05:54:26;;;;;;;6.75;4.78;;;;;;;;;;5065600;28;20049;-69
2021/07/12 05:56:54;;;;;;;8.55;4.40;;;;;;;;;;5064624;28;20135;-68
2021/07/12 05:59:23;;;;;;;7.85;4.28;;;;;;;;;;5066967;28;20122;-69
2021/07/12 06:01:53;;;;;;;10.10;5.45;;;;;;;;;;5063709;28;20143;-71
2021/07/12 06:04:21;;;;;;;7.78;4.50;;;;;;;;;;5054255;28;20060;-69
2021/07/12 06:06:49;;;;;;;7.07;4.53;;;;;;;;;;5065451;28;20799;-72
2021/07/12 06:09:18;;;;;;;7.43;4.63;;;;;;;;;;5055023;28;20048;-69
2021/07/12 06:11:47;;;;;;;8.27;5.00;;;;;;;;;;5066312;28;20483;-68
2021/07/12 06:14:16;;;;;;;7.32;5.45;;;;;;;;;;5066242;28;20094;-68
2021/07/12 06:16:45;;;;;;;9.55;5.35;;;;;;;;;;5064420;28;20051;-70
2021/07/12 06:19:16;;;;;;;6.70;4.97;;;;;;;;;;5055709;28;20352;-68
2021/07/12 06:21:45;;;;;;;6.43;4.55;;;;;;;;;;5066706;28;20086;-68
2021/07/12 06:24:14;;;;;;;10.70;4.57;;;;;;;;;;5063599;28;20447;-69
2021/07/12 06:26:45;;;;;;;5.47;4.20;;;;;;;;;;5048103;28;20068;-68
2021/07/12 06:29:13;;;;;;;4.60;4.00;;;;;;;;;;5065274;28;20049;-68
2021/07/12 06:31:42;;;;;;;6.15;3.08;;;;;;;;;;5066341;28;20146;-69
2021/07/12 06:34:11;;;;;;;5.57;3.30;;;;;;;;;;5063942;28;20127;-69
2021/07/12 06:36:41;;;;;;;6.57;4.15;;;;;;;;;;5065731;28;20140;-68
2021/07/12 06:39:10;;;;;;;4.07;2.80;;;;;;;;;;5064766;28;20048;-68
2021/07/12 06:41:39;;;;;;;6.55;3.00;;;;;;;;;;5065766;28;20360;-68
2021/07/12 06:44:08;;;;;;;4.85;2.80;;;;;;;;;;5063697;28;20044;-69
2021/07/12 06:46:37;;;;;;;3.65;2.72;;;;;;;;;;5064575;28;20045;-68
2021/07/12 06:49:06;;;;;;;4.18;3.08;;;;;;;;;;5057072;28;20560;-68
2021/07/12 06:51:35;;;;;;;5.05;3.10;;;;;;;;;;5064120;28;20055;-69
2021/07/12 06:54:04;;;;;;;6.35;3.97;;;;;;;;;;5059361;28;20525;-69
2021/07/12 06:56:33;;;;;;;5.95;3.40;;;;;;;;;;5064616;28;20154;-69
2021/07/12 06:59:03;;;;;;;4.35;3.40;;;;;;;;;;5064779;28;20056;-69
2021/07/12 07:01:31;;;;;;;5.18;3.00;;;;;;;;;;5065832;28;20479;-68
2021/07/12 07:04:00;;;;;;;7.80;2.63;;;;;;;;;;5064141;28;20048;-68
2021/07/12 07:06:30;;;;;;;6.10;3.20;;;;;;;;;;5060664;28;20059;-68
2021/07/12 07:08:59;;;;;;;3.22;2.63;;;;;;;;;;5053645;28;20088;-69
2021/07/12 07:11:31;;;;;;;5.47;2.63;;;;;;;;;;5064216;28;20405;-68
2021/07/12 07:14:00;;;;;;;6.25;2.50;;;;;;;;;;5065057;28;20082;-70
2021/07/12 07:16:29;;;;;;;3.30;2.55;;;;;;;;;;5062662;28;20518;-71
2021/07/12 07:18:58;;;;;;;5.55;2.70;;;;;;;;;;5063221;28;20053;-69
2021/07/12 07:21:27;;;;;;;6.20;2.17;;;;;;;;;;5062104;28;20084;-68
2021/07/12 07:23:56;;;;;;;5.88;2.35;;;;;;;;;;5063621;28;20512;-69
2021/07/12 07:26:25;;;;;;;7.53;2.60;;;;;;;;;;5058934;28;20053;-71
2021/07/12 07:28:56;;;;;;;3.85;2.53;;;;;;;;;;5053677;28;20538;-70
2021/07/12 07:31:26;;;;;;;4.05;2.30;;;;;;;;;;5073251;28;20057;-69
2021/07/12 07:33:55;;;;;;;5.93;2.40;;;;;;;;;;5068196;28;20044;-68
2021/07/12 07:36:24;;;;;;;4.57;2.30;;;;;;;;;;5067910;28;20106;-68
2021/07/12 07:38:53;;;;;;;4.38;2.50;;;;;;;;;;5069544;28;20485;-69
2021/07/12 07:41:23;;;;;;;5.78;2.80;;;;;;;;;;5069490;28;20055;-69
2021/07/12 07:43:52;;;;;;;3.53;2.45;;;;;;;;;;5053351;28;20084;-69
2021/07/12 07:46:22;;;;;;;4.70;2.20;;;;;;;;;;5060969;28;20412;-69
2021/07/12 07:48:51;;;;;;;3.90;2.70;;;;;;;;;;5062120;28;20048;-69
2021/07/12 07:51:20;;;;;;;4.07;2.03;;;;;;;;;;5067266;28;20056;-69
2021/07/12 07:53:49;;;;;;;3.65;2.65;;;;;;;;;;5067133;28;20048;-69
2021/07/12 07:56:19;;;;;;;4.10;2.22;;;;;;;;;;5066540;28;20133;-70
2021/07/12 07:58:48;;;;;;;2.88;2.30;;;;;;;;;;5068691;28;20095;-69
2021/07/12 08:01:16;;;;;;;3.92;2.10;;;;;;;;;;5067232;28;20272;-70
2021/07/12 08:03:47;;;;;;;3.47;1.95;;;;;;;;;;5056391;28;20103;-69
2021/07/12 08:06:17;;;;;;;2.88;2.10;;;;;;;;;;5066297;28;20470;-69
2021/07/12 08:08:46;;;;;;;4.35;1.90;;;;;;;;;;5066085;28;20132;-68
2021/07/12 08:11:15;;;;;;;3.92;2.38;;;;;;;;;;5068196;28;20048;-68
2021/07/12 08:13:44;;;;;;;4.50;2.20;;;;;;;;;;5067000;28;20044;-68
2021/07/12 08:16:14;;;;;;;2.67;2.08;;;;;;;;;;5062440;28;20048;-71
2021/07/12 08:18:43;;;;;;;3.30;1.70;;;;;;;;;;5063979;28;20047;-69
2021/07/12 08:21:13;;;;;;;4.45;1.60;;;;;;;;;;5062873;28;20515;-69
2021/07/12 08:23:42;;;;;;;2.05;1.60;;;;;;;;;;5066496;28;20052;-69
2021/07/12 08:26:11;;;;;;;2.97;1.60;;;;;;;;;;5066665;28;20147;-69
2021/07/12 08:28:41;;;;;;;3.65;2.25;;;;;;;;;;5067187;28;20079;-68
2021/07/12 08:31:11;;;;;;;3.47;1.80;;;;;;;;;;5065336;28;20605;-69
2021/07/12 08:33:40;;;;;;;3.63;1.40;;;;;;;;;;5066875;28;20045;-70
2021/07/12 08:36:09;;;;;;;3.45;1.60;;;;;;;;;;5060309;28;20048;-69
2021/07/12 08:38:40;;;;;;;1.75;1.50;;;;;;;;;;5065407;28;20154;-70
2021/07/12 08:41:09;;;;;;;2.38;1.88;;;;;;;;;;5066681;28;20264;-69
2021/07/12 08:43:38;;;;;;;2.03;1.45;;;;;;;;;;5066258;28;20114;-70
2021/07/12 08:46:20;;;;;;;3.08;1.20;;;;;;;;;;5062208;28;20441;-69
2021/07/12 08:48:49;;;;;;;4.82;1.20;;;;;;;;;;5067924;28;20063;-70
2021/07/12 08:51:18;;;;;;;1.58;1.10;;;;;;;;;;5067838;28;20476;-68
2021/07/12 08:53:49;;;;;;;5.18;1.25;;;;;;;;;;5065171;28;20496;-70
2021/07/12 08:56:19;;;;;;;1.80;1.30;;;;;;;;;;5055267;28;20060;-68
2021/07/12 08:58:48;;;;;;;2.47;1.38;;;;;;;;;;5067041;28;20102;-68
2021/07/12 09:01:17;;;;;;;3.17;1.10;;;;;;;;;;5062684;28;20045;-67
2021/07/12 09:03:51;;;;;;;4.53;1.30;;;;;;;;;;5063879;28;20646;-68
2021/07/12 09:06:36;;;;;;;3.42;1.27;;;;;;;;;;5065527;28;20396;-68
2021/07/12 09:09:11;;;;;;;1.35;1.00;;;;;;;;;;5056209;28;20055;-69
2021/07/12 09:11:42;;;;;;;3.00;1.17;;;;;;;;;;5066594;28;20153;-69
2021/07/12 09:14:12;;;;;;;2.97;1.13;;;;;;;;;;5065506;28;20053;-68
2021/07/12 09:16:42;;;;;;;3.58;1.23;;;;;;;;;;5065940;28;20302;-68
2021/07/12 09:19:13;;;;;;;3.17;1.20;;;;;;;;;;5062015;28;20277;-68
2021/07/12 09:21:43;;;;;;;2.10;1.23;;;;;;;;;;5067743;28;20052;-68
2021/07/12 09:24:32;;;;;;;3.13;1.20;;;;;;;;;;5058560;28;20048;-68
2021/07/12 09:27:05;;;;;;;1.33;1.15;;;;;;;;;;5058199;28;20040;-69
2021/07/12 09:29:35;;;;;;;2.20;1.10;;;;;;;;;;5066646;28;20048;-68
2021/07/12 09:32:05;;;;;;;1.92;1.30;;;;;;;;;;5066588;28;20495;-68
2021/07/12 09:34:35;;;;;;;1.67;1.15;;;;;;;;;;5066048;28;20045;-68
2021/07/12 09:37:04;;;;;;;1.17;0.80;;;;;;;;;;5066269;28;20062;-68
2021/07/12 09:39:38;;;;;;;1.13;0.95;;;;;;;;;;5058990;28;20055;-67
2021/07/12 09:42:10;;;;;;;3.60;1.20;;;;;;;;;;5066416;28;20115;-68
2021/07/12 09:44:40;;;;;;;3.15;1.10;;;;;;;;;;5064080;28;20555;-68
2021/07/12 09:47:11;;;;;;;1.77;1.10;;;;;;;;;;5063488;28;20067;-68
2021/07/12 09:49:40;;;;;;;1.20;1.08;;;;;;;;;;5065086;28;20583;-68
2021/07/12 09:52:12;;;;;;;1.92;1.35;;;;;;;;;;5058231;28;20058;-69
2021/07/12 09:54:41;;;;;;;3.05;0.95;;;;;;;;;;5063598;28;20084;-68
2021/07/12 09:57:13;;;;;;;2.17;1.33;;;;;;;;;;5052414;28;20565;-67
2021/07/12 10:00:03;;;;;;;5.82;1.20;;;;;;;;;;5064458;28;20059;-67
2021/07/12 10:02:33;;;;;;;2.90;1.17;;;;;;;;;;5058761;28;20072;-69
2021/07/12 10:05:03;;;;;;;1.25;0.98;;;;;;;;;;5056459;28;20411;-69
2021/07/12 10:07:32;;;;;;;1.15;1.00;;;;;;;;;;5058212;28;20126;-67
2021/07/12 10:10:01;;;;;;;4.38;1.15;;;;;;;;;;5058119;28;20084;-67
2021/07/12 10:12:31;;;;;;;3.72;1.20;;;;;;;;;;5059680;28;20136;-70
2021/07/12 10:15:00;;;;;;;1.52;0.95;;;;;;;;;;5059273;28;20066;-68
2021/07/12 10:17:28;;;;;;;1.33;1.20;;;;;;;;;;5063899;28;20052;-68
2021/07/12 10:19:57;;;;;;;3.22;1.48;;;;;;;;;;5050426;28;20063;-69
2021/07/12 10:22:26;;;;;;;2.08;1.20;;;;;;;;;;5064024;28;20117;-68
2021/07/12 10:24:55;;;;;;;3.72;1.55;;;;;;;;;;5063613;28;20044;-70
2021/07/12 10:27:24;;;;;;;1.20;1.08;;;;;;;;;;5064710;28;20075;-68
2021/07/12 10:29:55;;;;;;;2.47;1.45;;;;;;;;;;5054566;28;20098;-68
2021/07/12 10:32:24;;;;;;;4.55;1.38;;;;;;;;;;5065206;28;20052;-68
2021/07/12 10:34:53;;;;;;;3.90;1.10;;;;;;;;;;5047615;28;20485;-68
2021/07/12 10:37:23;;;;;;;2.90;1.10;;;;;;;;;;5063741;28;20059;-68
2021/07/12 10:40:06;;;;;;;3.00;1.08;;;;;;;;;;5064912;28;20087;-67
2021/07/12 10:42:54;;;;;;;1.83;1.48;;;;;;;;;;5065875;28;20070;-70
2021/07/12 10:45:40;;;;;;;2.85;1.40;;;;;;;;;;5064933;28;20131;-68
2021/07/12 10:48:11;;;;;;;4.22;1.50;;;;;;;;;;5062652;28;20514;-67
2021/07/12 10:50:41;;;;;;;4.78;1.30;;;;;;;;;;5064840;28;20045;-67
2021/07/12 10:53:43;;;;;;;2.25;1.45;;;;;;;;;;5062263;28;20044;-69
2021/07/12 10:56:16;;;;;;;1.95;1.38;;;;;;;;;;4981171;28;20145;-68
2021/07/12 10:58:45;;;;;;;1.58;1.38;;;;;;;;;;4976912;28;20278;-70
2021/07/12 11:01:35;;;;;;;2.15;1.15;;;;;;;;;;5009671;28;20083;-68
2021/07/12 11:04:24;;;;;;;3.47;1.35;;;;;;;;;;5054426;28;20088;-67
2021/07/12 11:06:54;;;;;;;2.80;1.30;;;;;;;;;;5021764;28;20049;-68
2021/07/12 11:09:37;;;;;;;2.88;1.35;;;;;;;;;;5068961;28;20053;-67
2021/07/12 11:12:20;;;;;;;2.60;1.50;;;;;;;;;;5071387;28;20080;-68
2021/07/12 11:15:04;;;;;;;1.70;1.27;;;;;;;;;;5067487;28;20044;-67
2021/07/12 11:17:51;;;;;;;4.18;1.60;;;;;;;;;;5071955;28;20078;-67
2021/07/12 11:20:40;;;;;;;1.40;1.30;;;;;;;;;;5069464;28;20088;-68
2021/07/12 11:23:09;;;;;;;3.30;1.58;;;;;;;;;;5063435;28;20273;-67
2021/07/12 11:25:42;;;;;;;4.10;1.38;;;;;;;;;;5070430;28;20044;-68
2021/07/12 11:28:12;;;;;;;5.05;1.70;;;;;;;;;;5067603;28;20052;-67
2021/07/12 11:30:40;;;;;;;3.92;1.50;;;;;;;;;;5071479;28;20080;-67
2021/07/12 11:33:09;;;;;;;2.20;1.38;;;;;;;;;;5070911;28;20045;-68
2021/07/12 11:35:39;;;;;;;2.00;1.50;;;;;;;;;;5065124;28;20098;-68
2021/07/12 11:38:09;;;;;;;1.92;1.60;;;;;;;;;;5070310;28;20131;-68
2021/07/12 11:40:37;;;;;;;2.65;1.80;;;;;;;;;;5064714;28;20139;-68
2021/07/12 11:43:05;;;;;;;3.33;1.75;;;;;;;;;;5071008;28;20492;-68
2021/07/12 11:45:34;;;;;;;3.10;1.60;;;;;;;;;;5070889;28;20056;-67
2021/07/12 11:48:02;;;;;;;1.95;1.70;;;;;;;;;;5066579;28;20103;-69
2021/07/12 11:50:31;;;;;;;2.17;1.80;;;;;;;;;;5071736;28;20098;-69
2021/07/12 11:53:06;;;;;;;2.05;1.88;;;;;;;;;;5069135;28;20169;-68
2021/07/12 11:55:38;;;;;;;3.60;2.00;;;;;;;;;;5067575;28;20060;-68
2021/07/12 11:58:07;;;;;;;1.90;1.58;;;;;;;;;;5070520;28;20086;-68
2021/07/12 12:00:36;;;;;;;2.10;1.80;;;;;;;;;;5066982;28;20143;-69
2021/07/12 12:03:06;;;;;;;3.72;1.67;;;;;;;;;;5066727;28;20045;-68
2021/07/12 12:05:35;;;;;;;2.80;1.40;;;;;;;;;;5067349;28;20055;-68
2021/07/12 12:08:06;;;;;;;1.60;1.50;;;;;;;;;;5070914;28;20132;-67
2021/07/12 12:10:37;;;;;;;1.98;1.48;;;;;;;;;;5069161;28;20071;-68
2021/07/12 12:13:11;;;;;;;3.20;1.98;;;;;;;;;;5068385;28;20511;-68
2021/07/12 12:15:41;;;;;;;1.90;1.70;;;;;;;;;;5068319;28;20048;-68
2021/07/12 12:18:10;;;;;;;5.22;1.60;;;;;;;;;;5066122;28;20049;-68
2021/07/12 12:20:40;;;;;;;1.88;1.70;;;;;;;;;;5066412;28;20052;-68
2021/07/12 12:23:16;;;;;;;2.63;1.83;;;;;;;;;;5062538;28;20048;-68
2021/07/12 12:25:46;;;;;;;2.22;1.75;;;;;;;;;;5069338;28;20149;-68
2021/07/12 12:28:23;;;;;;;2.30;1.85;;;;;;;;;;5063633;28;20102;-68
2021/07/12 12:30:51;;;;;;;2.55;1.80;;;;;;;;;;5052588;28;20068;-69
2021/07/12 12:33:25;;;;;;;2.78;1.80;;;;;;;;;;5068045;28;20067;-68
2021/07/12 12:35:58;;;;;;;3.47;1.73;;;;;;;;;;5062910;28;20082;-68
2021/07/12 12:38:28;;;;;;;2.17;1.65;;;;;;;;;;5069565;28;20040;-68
2021/07/12 12:40:58;;;;;;;3.53;1.90;;;;;;;;;;5057685;28;20052;-69
2021/07/12 12:43:26;;;;;;;1.88;1.70;;;;;;;;;;5069385;28;20045;-69
2021/07/12 12:45:58;;;;;;;2.15;1.60;;;;;;;;;;5063719;28;20135;-68
2021/07/12 12:48:34;;;;;;;5.40;1.90;;;;;;;;;;5065098;28;20396;-67
2021/07/12 12:51:17;;;;;;;6.30;1.83;;;;;;;;;;5066568;28;20451;-68
2021/07/12 12:53:56;;;;;;;2.30;2.10;;;;;;;;;;5056607;28;20244;-67
2021/07/12 12:56:24;;;;;;;3.15;2.10;;;;;;;;;;5060940;28;20075;-67
2021/07/12 12:58:57;;;;;;;2.92;2.15;;;;;;;;;;5067972;28;20101;-67
2021/07/12 13:01:32;;;;;;;4.20;1.80;;;;;;;;;;5056777;28;20044;-68
2021/07/12 13:04:05;;;;;;;2.30;1.88;;;;;;;;;;5059467;28;20088;-67
2021/07/12 13:06:40;;;;;;;2.60;1.80;;;;;;;;;;5062387;28;20051;-67
2021/07/12 13:09:13;;;;;;;2.13;1.92;;;;;;;;;;5059598;28;20589;-69
2021/07/12 13:11:42;;;;;;;1.73;1.63;;;;;;;;;;5067751;28;20512;-67
2021/07/12 13:14:10;;;;;;;1.90;1.73;;;;;;;;;;5067627;28;20148;-67
2021/07/12 13:16:39;;;;;;;2.67;1.60;;;;;;;;;;5068918;28;20045;-68
2021/07/12 13:19:08;;;;;;;4.20;1.70;;;;;;;;;;5068970;28;20059;-67
2021/07/12 13:21:49;;;;;;;6.63;1.85;;;;;;;;;;5067298;28;20102;-70
2021/07/12 13:24:39;;;;;;;2.80;1.70;;;;;;;;;;5064464;28;20058;-68
2021/07/12 13:27:08;;;;;;;2.35;1.80;;;;;;;;;;5068463;28;20041;-69
2021/07/12 13:29:36;;;;;;;2.15;1.77;;;;;;;;;;5069046;28;20195;-68
2021/07/12 13:32:05;;;;;;;3.45;1.50;;;;;;;;;;5063696;28;20045;-67
2021/07/12 13:34:33;;;;;;;1.63;1.42;;;;;;;;;;5065410;28;20045;-68
2021/07/12 13:37:02;;;;;;;2.92;1.48;;;;;;;;;;5068530;28;20048;-68
2021/07/12 13:39:32;;;;;;;3.28;1.45;;;;;;;;;;5066757;28;20072;-70
2021/07/12 13:42:00;;;;;;;1.95;1.55;;;;;;;;;;5064138;28;20056;-68
2021/07/12 13:44:28;;;;;;;2.80;1.75;;;;;;;;;;5066853;28;20581;-69
2021/07/12 13:46:57;;;;;;;1.48;1.38;;;;;;;;;;5062446;28;20053;-68
2021/07/12 13:49:25;;;;;;;2.45;1.35;;;;;;;;;;5066449;28;20045;-67
2021/07/12 13:51:54;;;;;;;2.45;1.35;;;;;;;;;;5068739;28;20083;-67
2021/07/12 13:54:23;;;;;;;4.80;1.50;;;;;;;;;;5066169;28;20560;-67
2021/07/12 13:56:53;;;;;;;1.63;1.33;;;;;;;;;;5053464;28;20057;-68
2021/07/12 13:59:21;;;;;;;3.03;1.60;;;;;;;;;;5067681;28;20098;-68
2021/07/12 14:01:50;;;;;;;2.67;1.20;;;;;;;;;;5068122;28;20060;-68
2021/07/12 14:04:19;;;;;;;3.47;1.20;;;;;;;;;;5059532;28;20049;-69
2021/07/12 14:06:47;;;;;;;1.45;0.98;;;;;;;;;;5067781;28;20044;-68
2021/07/12 14:09:16;;;;;;;3.25;1.15;;;;;;;;;;5068243;28;20094;-68
2021/07/12 14:11:44;;;;;;;2.38;1.40;;;;;;;;;;5068754;28;20139;-69
2021/07/12 14:14:16;;;;;;;2.65;1.40;;;;;;;;;;5064125;28;20084;-68
2021/07/12 14:16:44;;;;;;;2.17;1.50;;;;;;;;;;5068784;28;20424;-69
2021/07/12 14:19:13;;;;;;;3.28;1.30;;;;;;;;;;5052621;28;20055;-68
2021/07/12 14:21:42;;;;;;;2.55;1.40;;;;;;;;;;5066506;28;20417;-68
2021/07/12 14:24:11;;;;;;;2.15;1.30;;;;;;;;;;5068602;28;20143;-68
2021/07/12 14:26:39;;;;;;;1.92;1.27;;;;;;;;;;5068086;28;20041;-68
2021/07/12 14:29:09;;;;;;;2.35;1.60;;;;;;;;;;5066782;28;20420;-68
2021/07/12 14:31:39;;;;;;;3.33;1.23;;;;;;;;;;5069156;28;20127;-68
2021/07/12 14:34:08;;;;;;;4.43;1.58;;;;;;;;;;5066771;28;20044;-69
2021/07/12 14:36:37;;;;;;;2.72;1.27;;;;;;;;;;5062696;28;20543;-69
2021/07/12 14:39:06;;;;;;;1.85;1.10;;;;;;;;;;5056949;28;20068;-68
2021/07/12 14:41:34;;;;;;;1.88;1.50;;;;;;;;;;5065353;28;20040;-71
2021/07/12 14:44:03;;;;;;;2.17;1.30;;;;;;;;;;5068951;28;20488;-69
2021/07/12 14:46:31;;;;;;;1.85;1.35;;;;;;;;;;5069013;28;20062;-70
2021/07/12 14:49:01;;;;;;;1.73;1.23;;;;;;;;;;5070001;28;20106;-70
2021/07/12 14:51:30;;;;;;;1.88;1.30;;;;;;;;;;5068257;28;20565;-70
2021/07/12 14:53:58;;;;;;;5.78;1.40;;;;;;;;;;5068821;28;20101;-72
2021/07/12 14:56:26;;;;;;;1.98;1.20;;;;;;;;;;5068495;28;20080;-71
2021/07/12 14:58:55;;;;;;;1.98;1.15;;;;;;;;;;5066994;28;20476;-71
2021/07/12 15:01:26;;;;;;;1.65;1.20;;;;;;;;;;5063531;28;20506;-69
2021/07/12 15:03:54;;;;;;;1.90;1.30;;;;;;;;;;5058450;28;20127;-70